createdAt,value
2022-12-12T00:01:51.758Z,-0.43
2022-12-12T00:04:37.669Z,-0.40
2022-12-12T00:07:22.911Z,-0.35
2022-12-12T00:10:08.890Z,-0.41
2022-12-12T00:12:54.069Z,-0.43
2022-12-12T00:15:39.799Z,-0.42
2022-12-12T00:18:25.115Z,-0.55
2022-12-12T00:21:22.209Z,-0.52
2022-12-12T00:24:07.713Z,-0.57
2022-12-12T00:26:52.789Z,-0.48
2022-12-12T00:29:38.263Z,-0.46
2022-12-12T00:32:23.792Z,-0.38
2022-12-12T00:35:09.745Z,-0.34
2022-12-12T00:37:55.106Z,-0.34
2022-12-12T00:40:40.616Z,-0.30
2022-12-12T00:43:26.700Z,-0.39
2022-12-12T00:46:14.871Z,-0.39
2022-12-12T00:49:00.220Z,-0.42
2022-12-12T00:51:45.477Z,-0.45
2022-12-12T00:54:30.818Z,-0.51
2022-12-12T00:57:16.136Z,-0.28
2022-12-12T01:00:01.652Z,-0.17
2022-12-12T01:02:48.154Z,-0.39
2022-12-12T01:05:33.649Z,-0.45
2022-12-12T01:08:18.806Z,-0.54
2022-12-12T01:11:05.399Z,-0.51
2022-12-12T01:13:52.305Z,-0.39
2022-12-12T01:16:37.623Z,-0.34
2022-12-12T01:19:23.113Z,-0.34
2022-12-12T01:22:08.235Z,-0.36
2022-12-12T01:24:53.274Z,-0.34
2022-12-12T01:27:38.607Z,-0.38
2022-12-12T01:30:24.040Z,-0.40
2022-12-12T01:33:09.309Z,-0.44
2022-12-12T01:35:54.673Z,-0.40
2022-12-12T01:38:39.671Z,-0.47
2022-12-12T01:41:25.125Z,-0.44
2022-12-12T01:44:55.633Z,-0.49
2022-12-12T01:47:40.984Z,-0.42
2022-12-12T01:50:28.725Z,-0.33
2022-12-12T01:53:17.758Z,-0.30
2022-12-12T01:56:08.763Z,-0.26
2022-12-12T01:58:55.379Z,-0.33
2022-12-12T02:01:40.994Z,-0.34
2022-12-12T02:04:27.188Z,-0.24
2022-12-12T02:07:12.427Z,-0.34
2022-12-12T02:09:57.572Z,-0.31
2022-12-12T02:12:43.012Z,-0.36
2022-12-12T02:15:35.349Z,-0.39
2022-12-12T02:18:36.274Z,-0.33
2022-12-12T02:21:35.309Z,-0.31
2022-12-12T02:24:48.968Z,-0.38
2022-12-12T02:27:48.047Z,-0.38
2022-12-12T02:30:58.413Z,-0.37
2022-12-12T02:34:06.585Z,-0.46
2022-12-12T02:37:07.106Z,-0.43
2022-12-12T02:40:11.927Z,-0.37
2022-12-12T02:43:06.613Z,-0.29
2022-12-12T02:45:59.514Z,-0.51
2022-12-12T02:48:59.282Z,-0.31
2022-12-12T02:51:45.901Z,-0.33
2022-12-12T02:54:31.277Z,-0.41
2022-12-12T02:57:21.959Z,-0.40
2022-12-12T03:00:17.357Z,-0.34
2022-12-12T03:03:05.484Z,-0.38
2022-12-12T03:05:56.884Z,-0.47
2022-12-12T03:08:58.506Z,-0.52
2022-12-12T03:12:08.735Z,-0.50
2022-12-12T03:15:02.449Z,-0.55
2022-12-12T03:18:13.798Z,-0.48
2022-12-12T03:21:07.684Z,-0.48
2022-12-12T03:23:56.775Z,-0.57
2022-12-12T03:26:52.408Z,-0.65
2022-12-12T03:29:48.176Z,-0.56
2022-12-12T03:32:45.448Z,-0.52
2022-12-12T03:35:40.197Z,-0.47
2022-12-12T03:38:31.329Z,-0.56
2022-12-12T03:41:20.682Z,-0.57
2022-12-12T03:44:38.179Z,-0.55
2022-12-12T03:47:38.588Z,-0.57
2022-12-12T03:50:52.385Z,-0.60
2022-12-12T03:53:45.307Z,-0.71
2022-12-12T03:56:36.101Z,-0.70
2022-12-12T03:59:29.367Z,-0.71
2022-12-12T04:02:21.828Z,-0.73
2022-12-12T04:05:21.662Z,-0.81
2022-12-12T04:08:13.018Z,-0.80
2022-12-12T04:11:06.376Z,-0.73
2022-12-12T04:14:28.137Z,-0.75
2022-12-12T04:17:18.379Z,-0.76
2022-12-12T04:20:16.039Z,-0.77
2022-12-12T04:23:15.603Z,-0.70
2022-12-12T04:26:16.417Z,-0.60
2022-12-12T04:29:15.161Z,-0.73
2022-12-12T04:32:15.291Z,-0.54
2022-12-12T04:35:23.833Z,-0.63
2022-12-12T04:38:16.009Z,-0.75
2022-12-12T04:41:03.872Z,-0.73
2022-12-12T04:43:50.895Z,-0.81
2022-12-12T04:46:38.186Z,-0.73
2022-12-12T04:49:28.204Z,-0.73
2022-12-12T04:52:16.547Z,-0.92
2022-12-12T04:55:05.396Z,-1.01
2022-12-12T04:57:53.801Z,-0.95
2022-12-12T05:01:07.416Z,-0.97
2022-12-12T05:04:00.847Z,-0.89
2022-12-12T05:06:50.523Z,-0.75
2022-12-12T05:09:35.998Z,-0.79
2022-12-12T05:12:47.979Z,-0.92
2022-12-12T05:15:33.176Z,-0.96
2022-12-12T05:18:19.445Z,-1.03
2022-12-12T05:21:04.730Z,-0.84
2022-12-12T05:23:50.215Z,-0.86
2022-12-12T05:26:39.534Z,-0.97
2022-12-12T05:29:24.744Z,-0.98
2022-12-12T05:32:09.560Z,-0.82
2022-12-12T05:34:57.299Z,-0.90
2022-12-12T05:37:45.484Z,-0.95
2022-12-12T05:40:34.929Z,-1.05
2022-12-12T05:43:20.433Z,-0.94
2022-12-12T05:46:06.266Z,-1.03
2022-12-12T05:48:51.278Z,-0.89
2022-12-12T05:51:36.716Z,-0.86
2022-12-12T05:54:23.587Z,-0.86
2022-12-12T05:57:08.954Z,-0.92
2022-12-12T05:59:54.143Z,-0.95
2022-12-12T06:02:39.027Z,-0.97
2022-12-12T06:05:24.450Z,-0.86
2022-12-12T06:08:09.499Z,-0.95
2022-12-12T06:10:54.984Z,-0.85
2022-12-12T06:13:44.564Z,-0.89
2022-12-12T06:16:30.033Z,-0.94
2022-12-12T06:19:15.324Z,-0.98
2022-12-12T06:22:00.731Z,-0.93
2022-12-12T06:24:46.404Z,-0.74
2022-12-12T06:27:34.667Z,-0.89
2022-12-12T06:30:20.087Z,-0.77
2022-12-12T06:33:05.296Z,-0.86
2022-12-12T06:36:10.497Z,-0.99
2022-12-12T06:38:58.445Z,-0.98
2022-12-12T06:41:44.286Z,-1.08
2022-12-12T06:44:29.877Z,-1.09
2022-12-12T06:47:15.122Z,-0.99
2022-12-12T06:50:00.358Z,-0.98
2022-12-12T06:52:45.846Z,-1.04
2022-12-12T06:55:31.247Z,-0.99
2022-12-12T06:58:16.465Z,-0.84
2022-12-12T07:01:01.775Z,-0.84
2022-12-12T07:03:48.704Z,-0.86
2022-12-12T07:06:34.897Z,-0.86
2022-12-12T07:09:20.584Z,-0.92
2022-12-12T07:12:06.235Z,-0.88
2022-12-12T07:14:51.580Z,-0.93
2022-12-12T07:17:37.070Z,-0.97
2022-12-12T07:20:22.476Z,-0.86
2022-12-12T07:23:08.434Z,-0.98
2022-12-12T07:25:53.516Z,-0.91
2022-12-12T07:28:39.163Z,-0.92
2022-12-12T07:31:24.548Z,-0.87
2022-12-12T07:34:09.781Z,-0.87
2022-12-12T07:37:00.899Z,-1.00
2022-12-12T07:39:48.052Z,-0.84
2022-12-12T07:42:33.661Z,-0.95
2022-12-12T07:45:19.160Z,-0.98
2022-12-12T07:48:04.638Z,-1.09
2022-12-12T07:50:49.749Z,-1.03
2022-12-12T07:53:35.097Z,-1.04
2022-12-12T07:56:20.665Z,-1.06
2022-12-12T07:59:05.945Z,-1.11
2022-12-12T08:01:51.619Z,-1.05
2022-12-12T08:04:36.805Z,-0.95
2022-12-12T08:07:21.917Z,-1.07
2022-12-12T08:10:08.277Z,-1.09
2022-12-12T08:12:53.387Z,-1.13
2022-12-12T08:15:41.872Z,-1.04
2022-12-12T08:18:28.316Z,-1.13
2022-12-12T08:21:21.472Z,-1.23
2022-12-12T08:24:11.991Z,-1.17
2022-12-12T08:26:57.300Z,-1.20
2022-12-12T08:29:43.759Z,-1.18
2022-12-12T08:32:28.810Z,-1.09
2022-12-12T08:35:14.355Z,-1.09
2022-12-12T08:37:59.739Z,-1.03
2022-12-12T08:40:46.536Z,-0.98
2022-12-12T08:43:32.003Z,-1.09
2022-12-12T08:46:18.676Z,-1.07
2022-12-12T08:49:04.744Z,-1.08
2022-12-12T08:51:49.983Z,-0.99
2022-12-12T08:54:36.647Z,-1.08
2022-12-12T08:57:25.948Z,-0.96
2022-12-12T09:00:12.013Z,-1.11
2022-12-12T09:02:57.288Z,-1.03
2022-12-12T09:05:46.683Z,-1.02
2022-12-12T09:08:31.557Z,-1.08
2022-12-12T09:11:18.020Z,-1.03
2022-12-12T09:14:03.476Z,-1.23
2022-12-12T09:16:48.909Z,-1.34
2022-12-12T09:19:34.292Z,-1.52
2022-12-12T09:22:19.275Z,-1.44
2022-12-12T09:25:05.883Z,-1.38
2022-12-12T09:27:53.645Z,-1.47
2022-12-12T09:30:39.452Z,-1.45
2022-12-12T09:33:24.889Z,-1.36
2022-12-12T09:36:14.392Z,-1.29
2022-12-12T09:38:59.611Z,-1.29
2022-12-12T09:41:45.145Z,-1.25
2022-12-12T09:44:30.096Z,-1.15
2022-12-12T09:47:25.536Z,-1.02
2022-12-12T09:50:34.595Z,-1.06
2022-12-12T09:53:22.730Z,-1.21
2022-12-12T09:56:20.375Z,-1.16
2022-12-12T09:59:24.036Z,-0.99
2022-12-12T10:02:31.532Z,-0.91
2022-12-12T10:06:01.934Z,-0.69
2022-12-12T10:09:26.325Z,-0.67
2022-12-12T10:12:14.876Z,-0.69
2022-12-12T10:15:06.696Z,-0.60
2022-12-12T10:17:52.882Z,-0.58
2022-12-12T10:20:47.196Z,-0.55
2022-12-12T10:23:44.596Z,-0.70
2022-12-12T10:26:33.286Z,-0.74
2022-12-12T10:29:20.137Z,-0.63
2022-12-12T10:32:20.754Z,-0.40
2022-12-12T10:35:35.921Z,-0.32
2022-12-12T10:38:53.827Z,-0.25
2022-12-12T10:41:39.152Z,-0.46
2022-12-12T10:45:03.766Z,-0.36
2022-12-12T10:51:07.624Z,-0.45
2022-12-12T10:53:53.094Z,-0.33
2022-12-12T10:57:05.583Z,-0.23
2022-12-12T10:59:53.089Z,-0.40
2022-12-12T11:02:41.214Z,-0.26
2022-12-12T11:05:34.679Z,-0.22
2022-12-12T11:08:22.269Z,-0.16
2022-12-12T11:11:10.493Z,0.02
2022-12-12T11:13:56.970Z,-0.05
2022-12-12T11:16:43.940Z,-0.52
2022-12-12T11:19:38.449Z,-0.47
2022-12-12T11:22:24.314Z,-0.19
2022-12-12T11:25:24.406Z,-0.13
2022-12-12T11:28:20.398Z,-0.07
2022-12-12T11:31:10.712Z,-0.15
2022-12-12T11:34:04.184Z,0.00
2022-12-12T11:36:49.335Z,-0.31
2022-12-12T11:39:42.795Z,-0.28
2022-12-12T11:42:30.526Z,-0.27
2022-12-12T11:45:15.856Z,-0.35
2022-12-12T11:48:01.511Z,-0.33
2022-12-12T11:50:46.681Z,-0.28
2022-12-12T11:53:45.627Z,-0.10
2022-12-12T11:56:44.756Z,-0.13
2022-12-12T12:00:00.077Z,-0.16
2022-12-12T12:03:03.763Z,-0.14
2022-12-12T12:06:16.656Z,-0.07
2022-12-12T12:09:23.313Z,0.01
2022-12-12T12:12:14.650Z,0.15
2022-12-12T12:15:25.259Z,0.10
2022-12-12T12:18:33.712Z,0.22
2022-12-12T12:21:18.736Z,0.33
2022-12-12T12:24:19.477Z,0.46
2022-12-12T12:27:23.249Z,0.30
2022-12-12T12:30:25.795Z,0.30
2022-12-12T12:33:29.421Z,0.48
2022-12-12T12:36:26.810Z,0.60
2022-12-12T12:39:41.637Z,0.63
2022-12-12T12:42:49.634Z,0.66
2022-12-12T12:45:52.668Z,0.60
2022-12-12T12:48:42.302Z,0.56
2022-12-12T12:51:29.741Z,0.75
2022-12-12T12:54:39.058Z,0.72
2022-12-12T12:57:30.169Z,0.67
2022-12-12T13:00:21.520Z,0.61
2022-12-12T13:03:17.210Z,0.58
2022-12-12T13:06:08.344Z,0.71
2022-12-12T13:08:59.347Z,0.73
2022-12-12T13:11:48.939Z,0.58
2022-12-12T13:14:43.667Z,0.46
2022-12-12T13:17:41.334Z,0.62
2022-12-12T13:20:29.058Z,0.63
2022-12-12T13:23:26.826Z,0.66
2022-12-12T13:26:30.632Z,0.79
2022-12-12T13:29:33.882Z,0.65
2022-12-12T13:32:40.888Z,0.53
2022-12-12T13:35:44.224Z,0.57
2022-12-12T13:38:32.785Z,0.59
2022-12-12T13:41:18.248Z,0.77
2022-12-12T13:44:04.479Z,0.69
2022-12-12T13:46:49.800Z,0.86
2022-12-12T13:49:53.805Z,0.89
2022-12-12T13:52:41.056Z,0.79
2022-12-12T13:55:26.675Z,0.97
2022-12-12T13:58:31.249Z,0.90
2022-12-12T14:01:31.990Z,0.75
2022-12-12T14:04:37.817Z,0.51
2022-12-12T14:07:24.428Z,0.26
2022-12-12T14:10:24.920Z,0.39
2022-12-12T14:13:15.848Z,0.58
2022-12-12T14:16:14.647Z,0.50
2022-12-12T14:19:04.496Z,0.46
2022-12-12T14:21:49.745Z,0.49
2022-12-12T14:24:35.118Z,0.53
2022-12-12T14:27:49.045Z,0.40
2022-12-12T14:30:44.405Z,0.46
2022-12-12T14:33:44.879Z,0.44
2022-12-12T14:37:07.020Z,0.44
2022-12-12T14:40:13.127Z,0.44
2022-12-12T14:43:19.207Z,0.48
2022-12-12T14:46:17.246Z,0.53
2022-12-12T14:49:04.359Z,0.90
2022-12-12T14:51:52.057Z,1.09
2022-12-12T14:54:37.387Z,0.92
2022-12-12T14:57:24.130Z,0.79
2022-12-12T15:00:19.451Z,0.71
2022-12-12T15:03:04.845Z,0.83
2022-12-12T15:06:20.137Z,0.77
2022-12-12T15:09:19.548Z,0.74
2022-12-12T15:12:10.567Z,0.64
2022-12-12T15:14:57.002Z,0.66
2022-12-12T15:17:49.539Z,0.65
2022-12-12T15:20:35.447Z,0.36
2022-12-12T15:23:20.963Z,0.33
2022-12-12T15:26:06.349Z,0.19
2022-12-12T15:28:52.028Z,0.10
2022-12-12T15:31:37.375Z,0.16
2022-12-12T15:34:41.836Z,0.18
2022-12-12T15:37:29.563Z,0.19
2022-12-12T15:40:24.847Z,0.26
2022-12-12T15:43:19.556Z,0.43
2022-12-12T15:46:12.769Z,0.26
2022-12-12T15:48:58.273Z,0.14
2022-12-12T15:51:43.575Z,-0.09
2022-12-12T15:54:28.703Z,-0.05
2022-12-12T15:57:19.238Z,-0.06
2022-12-12T16:00:07.404Z,-0.16
2022-12-12T16:03:06.625Z,-0.18
2022-12-12T16:06:00.939Z,-0.17
2022-12-12T16:09:00.116Z,-0.16
2022-12-12T16:11:55.182Z,0.02
2022-12-12T16:14:42.809Z,-0.16
2022-12-12T16:17:28.364Z,-0.23
2022-12-12T16:20:14.236Z,-0.10
2022-12-12T16:23:18.281Z,-0.14
2022-12-12T16:26:03.520Z,-0.03
2022-12-12T16:28:48.899Z,-0.03
2022-12-12T16:31:34.165Z,-0.02
2022-12-12T16:34:19.807Z,-0.09
2022-12-12T16:37:05.299Z,-0.06
2022-12-12T16:39:50.619Z,-0.14
2022-12-12T16:42:35.874Z,-0.21
2022-12-12T16:45:28.188Z,-0.30
2022-12-12T16:48:21.580Z,-0.26
2022-12-12T16:51:10.975Z,-0.19
2022-12-12T16:53:56.287Z,-0.22
2022-12-12T16:56:41.557Z,-0.26
2022-12-12T16:59:26.599Z,-0.32
2022-12-12T17:02:23.651Z,-0.37
2022-12-12T17:05:24.179Z,-0.33
2022-12-12T17:08:10.728Z,-0.41
2022-12-12T17:11:10.617Z,-0.48
2022-12-12T17:13:56.418Z,-0.64
2022-12-12T17:16:41.472Z,-0.60
2022-12-12T17:19:26.624Z,-0.58
2022-12-12T17:22:12.407Z,-0.65
2022-12-12T17:24:57.270Z,-0.83
2022-12-12T17:27:42.843Z,-0.81
2022-12-12T17:30:28.134Z,-0.58
2022-12-12T17:33:19.873Z,-0.61
2022-12-12T17:36:06.695Z,-0.77
2022-12-12T17:38:52.261Z,-0.79
2022-12-12T17:41:37.474Z,-0.83
2022-12-12T17:44:22.955Z,-0.83
2022-12-12T17:47:08.406Z,-0.88
2022-12-12T17:49:53.888Z,-0.96
2022-12-12T17:52:39.300Z,-0.86
2022-12-12T17:55:54.777Z,-0.86
2022-12-12T17:58:32.644Z,-0.89
2022-12-12T18:01:20.494Z,-1.14
2022-12-12T18:04:06.565Z,-1.08
2022-12-12T18:06:51.501Z,-1.14
2022-12-12T18:09:37.083Z,-1.12
2022-12-12T18:12:25.391Z,-1.23
2022-12-12T18:15:12.533Z,-1.24
2022-12-12T18:17:57.753Z,-1.34
2022-12-12T18:20:42.967Z,-1.47
2022-12-12T18:23:28.197Z,-1.21
2022-12-12T18:26:21.652Z,-1.46
2022-12-12T18:29:08.188Z,-1.46
2022-12-12T18:31:53.420Z,-1.49
2022-12-12T18:34:38.783Z,-1.44
2022-12-12T18:37:24.078Z,-1.41
2022-12-12T18:40:09.637Z,-1.53
2022-12-12T18:42:55.661Z,-1.49
2022-12-12T18:45:41.096Z,-1.59
2022-12-12T18:48:26.476Z,-1.63
2022-12-12T18:51:20.815Z,-1.64
2022-12-12T18:54:12.787Z,-1.63
2022-12-12T18:57:00.131Z,-1.65
2022-12-12T18:59:45.759Z,-1.64
2022-12-12T19:02:30.963Z,-1.66
2022-12-12T19:05:16.640Z,-1.69
2022-12-12T19:08:02.073Z,-1.63
2022-12-12T19:10:47.265Z,-1.71
2022-12-12T19:13:33.194Z,-1.67
2022-12-12T19:16:19.781Z,-1.72
2022-12-12T19:19:05.472Z,-1.77
2022-12-12T19:21:50.530Z,-1.83
2022-12-12T19:24:35.401Z,-1.76
2022-12-12T19:27:21.036Z,-1.83
2022-12-12T19:30:07.224Z,-1.73
2022-12-12T19:32:52.233Z,-1.69
2022-12-12T19:35:38.119Z,-1.70
2022-12-12T19:38:24.702Z,-1.71
2022-12-12T19:41:11.867Z,-1.76
2022-12-12T19:43:59.647Z,-1.82
2022-12-12T19:46:44.976Z,-1.97
2022-12-12T19:49:29.877Z,-1.98
2022-12-12T19:52:15.260Z,-2.22
2022-12-12T19:55:00.253Z,-2.20
2022-12-12T19:57:45.672Z,-2.37
2022-12-12T20:00:31.285Z,-2.29
2022-12-12T20:03:16.421Z,-2.22
2022-12-12T20:06:03.386Z,-2.21
2022-12-12T20:08:48.973Z,-2.25
2022-12-12T20:11:34.037Z,-2.38
2022-12-12T20:14:22.102Z,-2.54
2022-12-12T20:17:07.008Z,-2.66
2022-12-12T20:19:51.836Z,-2.71
2022-12-12T20:22:37.357Z,-2.55
2022-12-12T20:25:22.812Z,-2.60
2022-12-12T20:28:09.173Z,-2.64
2022-12-12T20:31:03.776Z,-2.74
2022-12-12T20:33:50.046Z,-2.66
2022-12-12T20:36:35.993Z,-2.70
2022-12-12T20:39:21.668Z,-2.74
2022-12-12T20:42:06.583Z,-2.84
2022-12-12T20:44:52.039Z,-2.84
2022-12-12T20:47:37.684Z,-2.80
2022-12-12T20:50:22.920Z,-2.83
2022-12-12T20:53:08.456Z,-2.79
2022-12-12T20:55:53.963Z,-2.74
2022-12-12T20:58:39.959Z,-2.71
2022-12-12T21:01:31.180Z,-2.77
2022-12-12T21:04:16.421Z,-2.71
2022-12-12T21:07:01.949Z,-2.48
2022-12-12T21:09:47.313Z,-2.45
2022-12-12T21:12:32.139Z,-2.39
2022-12-12T21:15:18.117Z,-2.36
2022-12-12T21:18:03.760Z,-2.33
2022-12-12T21:20:49.017Z,-2.34
2022-12-12T21:23:33.909Z,-2.30
2022-12-12T21:26:28.629Z,-2.37
2022-12-12T21:29:14.791Z,-2.45
2022-12-12T21:32:00.110Z,-2.49
2022-12-12T21:34:45.731Z,-2.52
2022-12-12T21:37:33.628Z,-2.59
2022-12-12T21:40:22.353Z,-2.59
2022-12-12T21:43:07.748Z,-2.59
2022-12-12T21:45:54.283Z,-2.59
2022-12-12T21:48:40.015Z,-2.64
2022-12-12T21:51:25.292Z,-2.55
2022-12-12T21:54:11.743Z,-2.55
2022-12-12T21:56:58.972Z,-2.88
2022-12-12T21:59:44.579Z,-3.17
2022-12-12T22:02:29.970Z,-3.09
2022-12-12T22:05:15.223Z,-3.12
2022-12-12T22:08:01.011Z,-3.24
2022-12-12T22:10:46.690Z,-3.27
2022-12-12T22:13:40.883Z,-3.35
2022-12-12T22:16:26.203Z,-3.34
2022-12-12T22:19:13.832Z,-3.38
2022-12-12T22:21:59.514Z,-3.44
2022-12-12T22:24:44.875Z,-3.44
2022-12-12T22:27:32.949Z,-3.19
2022-12-12T22:30:18.027Z,-3.32
2022-12-12T22:33:03.471Z,-3.25
2022-12-12T22:35:48.784Z,-3.36
2022-12-12T22:38:38.213Z,-3.41
2022-12-12T22:41:23.833Z,-3.40
2022-12-12T22:44:13.870Z,-3.28
2022-12-12T22:46:59.397Z,-3.39
2022-12-12T22:49:44.872Z,-3.47
2022-12-12T22:52:29.692Z,-3.41
2022-12-12T22:55:15.532Z,-3.42
2022-12-12T22:58:01.178Z,-3.50
2022-12-12T23:00:46.190Z,-3.32
2022-12-12T23:03:31.043Z,-3.51
2022-12-12T23:06:25.806Z,-3.73
2022-12-12T23:09:20.101Z,-3.81
2022-12-12T23:12:05.368Z,-3.71
2022-12-12T23:14:50.527Z,-3.65
2022-12-12T23:17:36.553Z,-3.72
2022-12-12T23:20:21.404Z,-3.76
2022-12-12T23:23:06.440Z,-3.69
2022-12-12T23:25:51.718Z,-3.68
2022-12-12T23:28:37.996Z,-3.70
2022-12-12T23:31:26.371Z,-3.78
2022-12-12T23:34:17.846Z,-3.83
2022-12-12T23:37:03.296Z,-3.80
2022-12-12T23:39:50.041Z,-3.78
2022-12-12T23:42:35.265Z,-3.80
2022-12-12T23:45:20.660Z,-3.82
2022-12-12T23:48:06.004Z,-3.85
2022-12-12T23:50:51.047Z,-3.85
2022-12-12T23:53:36.087Z,-3.88
2022-12-12T23:56:20.979Z,-4.02
2022-12-12T23:59:06.527Z,-3.85
